sensor_id;sensor_type;location;lat;lon;timestamp;P1;durP1;ratioP1;P2;durP2;ratioP2
16766;SDS011;8501;49.926;8.404;2023-07-31T00:00:38;5.75;;;2.30;;
16766;SDS011;8501;49.926;8.404;2023-07-31T00:03:03;4.28;;;2.20;;
16766;SDS011;8501;49.926;8.404;2023-07-31T00:05:29;4.28;;;2.22;;
16766;SDS011;8501;49.926;8.404;2023-07-31T00:07:54;3.88;;;2.20;;
16766;SDS011;8501;49.926;8.404;2023-07-31T00:10:20;5.35;;;2.10;;
16766;SDS011;8501;49.926;8.404;2023-07-31T00:12:46;3.25;;;2.00;;
16766;SDS011;8501;49.926;8.404;2023-07-31T00:15:12;5.05;;;2.40;;
16766;SDS011;8501;49.926;8.404;2023-07-31T00:17:39;4.55;;;2.17;;
16766;SDS011;8501;49.926;8.404;2023-07-31T00:20:04;3.92;;;2.20;;
16766;SDS011;8501;49.926;8.404;2023-07-31T00:22:30;3.92;;;2.13;;
16766;SDS011;8501;49.926;8.404;2023-07-31T00:24:56;5.90;;;2.50;;
16766;SDS011;8501;49.926;8.404;2023-07-31T00:27:22;4.28;;;2.30;;
16766;SDS011;8501;49.926;8.404;2023-07-31T00:29:47;5.07;;;2.17;;
16766;SDS011;8501;49.926;8.404;2023-07-31T00:32:13;5.72;;;2.20;;
16766;SDS011;8501;49.926;8.404;2023-07-31T00:34:39;6.15;;;2.28;;
16766;SDS011;8501;49.926;8.404;2023-07-31T00:37:04;5.68;;;2.30;;
16766;SDS011;8501;49.926;8.404;2023-07-31T00:39:30;5.07;;;2.30;;
16766;SDS011;8501;49.926;8.404;2023-07-31T00:41:56;3.80;;;2.70;;
16766;SDS011;8501;49.926;8.404;2023-07-31T00:44:21;3.85;;;2.03;;
16766;SDS011;8501;49.926;8.404;2023-07-31T00:46:47;5.47;;;2.42;;
16766;SDS011;8501;49.926;8.404;2023-07-31T00:49:13;4.40;;;2.30;;
16766;SDS011;8501;49.926;8.404;2023-07-31T00:51:39;5.78;;;2.30;;
16766;SDS011;8501;49.926;8.404;2023-07-31T00:54:05;4.82;;;2.05;;
16766;SDS011;8501;49.926;8.404;2023-07-31T00:56:31;4.28;;;2.35;;
16766;SDS011;8501;49.926;8.404;2023-07-31T00:58:57;3.92;;;2.20;;
16766;SDS011;8501;49.926;8.404;2023-07-31T01:01:23;2.55;;;2.00;;
16766;SDS011;8501;49.926;8.404;2023-07-31T01:03:49;4.72;;;2.28;;
16766;SDS011;8501;49.926;8.404;2023-07-31T01:06:33;5.25;;;2.25;;
16766;SDS011;8501;49.926;8.404;2023-07-31T01:11:42;5.10;;;2.15;;
16766;SDS011;8501;49.926;8.404;2023-07-31T01:14:12;3.88;;;2.42;;
16766;SDS011;8501;49.926;8.404;2023-07-31T01:16:38;5.40;;;2.40;;
16766;SDS011;8501;49.926;8.404;2023-07-31T01:19:03;4.53;;;2.40;;
16766;SDS011;8501;49.926;8.404;2023-07-31T01:24:55;4.05;;;2.20;;
16766;SDS011;8501;49.926;8.404;2023-07-31T01:27:50;5.72;;;2.65;;
16766;SDS011;8501;49.926;8.404;2023-07-31T01:30:25;4.05;;;2.15;;
16766;SDS011;8501;49.926;8.404;2023-07-31T01:32:53;3.72;;;2.42;;
16766;SDS011;8501;49.926;8.404;2023-07-31T01:35:21;5.13;;;2.35;;
16766;SDS011;8501;49.926;8.404;2023-07-31T01:37:46;4.72;;;2.30;;
16766;SDS011;8501;49.926;8.404;2023-07-31T01:40:12;6.35;;;2.53;;
16766;SDS011;8501;49.926;8.404;2023-07-31T01:42:37;3.65;;;2.50;;
16766;SDS011;8501;49.926;8.404;2023-07-31T01:45:03;7.03;;;2.42;;
16766;SDS011;8501;49.926;8.404;2023-07-31T01:47:29;7.25;;;2.63;;
16766;SDS011;8501;49.926;8.404;2023-07-31T01:49:54;6.68;;;2.45;;
16766;SDS011;8501;49.926;8.404;2023-07-31T01:52:20;4.40;;;2.65;;
16766;SDS011;8501;49.926;8.404;2023-07-31T01:54:46;6.95;;;2.60;;
16766;SDS011;8501;49.926;8.404;2023-07-31T01:57:11;3.88;;;2.38;;
16766;SDS011;8501;49.926;8.404;2023-07-31T01:59:37;3.83;;;2.20;;
16766;SDS011;8501;49.926;8.404;2023-07-31T02:02:02;3.65;;;2.60;;
16766;SDS011;8501;49.926;8.404;2023-07-31T02:04:28;5.88;;;2.40;;
16766;SDS011;8501;49.926;8.404;2023-07-31T02:06:53;6.40;;;2.85;;
16766;SDS011;8501;49.926;8.404;2023-07-31T02:09:19;6.57;;;2.60;;
16766;SDS011;8501;49.926;8.404;2023-07-31T02:11:44;5.10;;;2.90;;
16766;SDS011;8501;49.926;8.404;2023-07-31T02:14:10;5.93;;;2.97;;
16766;SDS011;8501;49.926;8.404;2023-07-31T02:16:35;6.38;;;2.58;;
16766;SDS011;8501;49.926;8.404;2023-07-31T02:19:01;4.82;;;2.20;;
16766;SDS011;8501;49.926;8.404;2023-07-31T02:21:26;4.68;;;2.40;;
16766;SDS011;8501;49.926;8.404;2023-07-31T02:23:52;5.50;;;2.60;;
16766;SDS011;8501;49.926;8.404;2023-07-31T02:26:17;6.50;;;2.58;;
16766;SDS011;8501;49.926;8.404;2023-07-31T02:28:43;5.18;;;2.30;;
16766;SDS011;8501;49.926;8.404;2023-07-31T02:31:08;5.53;;;2.45;;
16766;SDS011;8501;49.926;8.404;2023-07-31T02:33:34;6.72;;;2.58;;
16766;SDS011;8501;49.926;8.404;2023-07-31T02:36:00;4.63;;;2.53;;
16766;SDS011;8501;49.926;8.404;2023-07-31T02:38:25;6.18;;;2.40;;
16766;SDS011;8501;49.926;8.404;2023-07-31T02:40:51;6.82;;;2.53;;
16766;SDS011;8501;49.926;8.404;2023-07-31T02:43:17;6.47;;;2.63;;
16766;SDS011;8501;49.926;8.404;2023-07-31T02:45:42;6.10;;;2.65;;
16766;SDS011;8501;49.926;8.404;2023-07-31T02:48:08;5.88;;;2.38;;
16766;SDS011;8501;49.926;8.404;2023-07-31T02:50:33;5.43;;;2.60;;
16766;SDS011;8501;49.926;8.404;2023-07-31T02:52:59;6.72;;;2.90;;
16766;SDS011;8501;49.926;8.404;2023-07-31T02:55:24;4.63;;;2.67;;
16766;SDS011;8501;49.926;8.404;2023-07-31T02:57:50;6.45;;;2.65;;
16766;SDS011;8501;49.926;8.404;2023-07-31T03:00:17;5.75;;;2.45;;
16766;SDS011;8501;49.926;8.404;2023-07-31T03:02:42;6.38;;;2.67;;
16766;SDS011;8501;49.926;8.404;2023-07-31T03:05:08;5.38;;;2.72;;
16766;SDS011;8501;49.926;8.404;2023-07-31T03:07:34;6.20;;;2.60;;
16766;SDS011;8501;49.926;8.404;2023-07-31T03:09:59;6.63;;;2.50;;
16766;SDS011;8501;49.926;8.404;2023-07-31T03:12:25;3.40;;;2.47;;
16766;SDS011;8501;49.926;8.404;2023-07-31T03:14:50;4.97;;;2.53;;
16766;SDS011;8501;49.926;8.404;2023-07-31T03:17:16;7.22;;;2.92;;
16766;SDS011;8501;49.926;8.404;2023-07-31T03:19:41;6.97;;;2.60;;
16766;SDS011;8501;49.926;8.404;2023-07-31T03:22:07;5.35;;;2.75;;
16766;SDS011;8501;49.926;8.404;2023-07-31T03:24:32;7.28;;;2.47;;
16766;SDS011;8501;49.926;8.404;2023-07-31T03:26:58;3.75;;;2.60;;
16766;SDS011;8501;49.926;8.404;2023-07-31T03:29:23;6.25;;;2.80;;
16766;SDS011;8501;49.926;8.404;2023-07-31T03:31:49;5.88;;;2.47;;
16766;SDS011;8501;49.926;8.404;2023-07-31T03:34:14;6.25;;;2.60;;
16766;SDS011;8501;49.926;8.404;2023-07-31T03:36:40;5.65;;;2.92;;
16766;SDS011;8501;49.926;8.404;2023-07-31T03:39:05;5.45;;;2.50;;
16766;SDS011;8501;49.926;8.404;2023-07-31T03:41:31;7.30;;;3.00;;
16766;SDS011;8501;49.926;8.404;2023-07-31T03:43:56;4.32;;;2.90;;
16766;SDS011;8501;49.926;8.404;2023-07-31T03:46:22;5.15;;;2.50;;
16766;SDS011;8501;49.926;8.404;2023-07-31T03:48:49;4.72;;;2.70;;
16766;SDS011;8501;49.926;8.404;2023-07-31T03:51:14;7.93;;;2.90;;
16766;SDS011;8501;49.926;8.404;2023-07-31T03:53:40;4.80;;;2.47;;
16766;SDS011;8501;49.926;8.404;2023-07-31T03:56:06;7.47;;;2.95;;
16766;SDS011;8501;49.926;8.404;2023-07-31T03:58:31;5.18;;;2.80;;
16766;SDS011;8501;49.926;8.404;2023-07-31T04:00:57;4.25;;;2.65;;
16766;SDS011;8501;49.926;8.404;2023-07-31T04:03:22;9.13;;;3.78;;
16766;SDS011;8501;49.926;8.404;2023-07-31T04:05:48;7.22;;;3.47;;
16766;SDS011;8501;49.926;8.404;2023-07-31T04:08:13;8.55;;;2.90;;
16766;SDS011;8501;49.926;8.404;2023-07-31T04:10:39;7.78;;;2.97;;
16766;SDS011;8501;49.926;8.404;2023-07-31T04:13:04;6.03;;;2.90;;
16766;SDS011;8501;49.926;8.404;2023-07-31T04:15:30;6.63;;;2.90;;
16766;SDS011;8501;49.926;8.404;2023-07-31T04:17:55;7.53;;;2.78;;
16766;SDS011;8501;49.926;8.404;2023-07-31T04:20:21;7.78;;;2.90;;
16766;SDS011;8501;49.926;8.404;2023-07-31T04:22:47;4.45;;;2.80;;
16766;SDS011;8501;49.926;8.404;2023-07-31T04:25:13;6.07;;;2.78;;
16766;SDS011;8501;49.926;8.404;2023-07-31T04:27:39;5.25;;;2.60;;
16766;SDS011;8501;49.926;8.404;2023-07-31T04:30:05;5.47;;;2.70;;
16766;SDS011;8501;49.926;8.404;2023-07-31T04:32:31;6.28;;;2.65;;
16766;SDS011;8501;49.926;8.404;2023-07-31T04:34:56;8.25;;;2.92;;
16766;SDS011;8501;49.926;8.404;2023-07-31T04:37:22;8.98;;;2.90;;
16766;SDS011;8501;49.926;8.404;2023-07-31T04:39:47;8.10;;;2.85;;
16766;SDS011;8501;49.926;8.404;2023-07-31T04:42:13;7.68;;;2.83;;
16766;SDS011;8501;49.926;8.404;2023-07-31T04:44:38;8.35;;;3.03;;
16766;SDS011;8501;49.926;8.404;2023-07-31T04:47:04;4.90;;;2.38;;
16766;SDS011;8501;49.926;8.404;2023-07-31T04:49:31;5.47;;;2.65;;
16766;SDS011;8501;49.926;8.404;2023-07-31T04:51:57;4.82;;;2.80;;
16766;SDS011;8501;49.926;8.404;2023-07-31T04:54:23;5.25;;;2.90;;
16766;SDS011;8501;49.926;8.404;2023-07-31T04:56:48;6.55;;;2.72;;
16766;SDS011;8501;49.926;8.404;2023-07-31T04:59:14;8.23;;;2.65;;
16766;SDS011;8501;49.926;8.404;2023-07-31T05:01:39;6.13;;;2.92;;
16766;SDS011;8501;49.926;8.404;2023-07-31T05:04:05;6.07;;;2.72;;
16766;SDS011;8501;49.926;8.404;2023-07-31T05:06:30;5.85;;;3.15;;
16766;SDS011;8501;49.926;8.404;2023-07-31T05:08:56;7.97;;;2.97;;
16766;SDS011;8501;49.926;8.404;2023-07-31T05:11:21;8.60;;;2.70;;
16766;SDS011;8501;49.926;8.404;2023-07-31T05:13:47;6.00;;;2.95;;
16766;SDS011;8501;49.926;8.404;2023-07-31T05:16:13;5.43;;;2.97;;
16766;SDS011;8501;49.926;8.404;2023-07-31T05:18:38;6.45;;;3.00;;
16766;SDS011;8501;49.926;8.404;2023-07-31T05:21:04;5.10;;;2.90;;
16766;SDS011;8501;49.926;8.404;2023-07-31T05:23:29;6.63;;;2.97;;
16766;SDS011;8501;49.926;8.404;2023-07-31T05:26:02;6.15;;;2.67;;
16766;SDS011;8501;49.926;8.404;2023-07-31T05:28:29;5.82;;;3.03;;
16766;SDS011;8501;49.926;8.404;2023-07-31T05:30:58;5.45;;;2.83;;
16766;SDS011;8501;49.926;8.404;2023-07-31T05:33:25;6.13;;;2.80;;
16766;SDS011;8501;49.926;8.404;2023-07-31T05:35:50;6.32;;;2.90;;
16766;SDS011;8501;49.926;8.404;2023-07-31T05:38:16;10.00;;;2.72;;
16766;SDS011;8501;49.926;8.404;2023-07-31T05:40:42;7.50;;;2.70;;
16766;SDS011;8501;49.926;8.404;2023-07-31T05:43:07;5.13;;;3.05;;
16766;SDS011;8501;49.926;8.404;2023-07-31T05:45:34;8.57;;;3.17;;
16766;SDS011;8501;49.926;8.404;2023-07-31T05:48:00;5.97;;;2.83;;
16766;SDS011;8501;49.926;8.404;2023-07-31T05:50:25;7.78;;;2.67;;
16766;SDS011;8501;49.926;8.404;2023-07-31T05:52:51;7.45;;;3.05;;
16766;SDS011;8501;49.926;8.404;2023-07-31T05:55:17;5.93;;;2.97;;
16766;SDS011;8501;49.926;8.404;2023-07-31T05:57:42;7.88;;;2.95;;
16766;SDS011;8501;49.926;8.404;2023-07-31T06:00:10;5.75;;;2.70;;
16766;SDS011;8501;49.926;8.404;2023-07-31T06:02:37;7.95;;;3.08;;
16766;SDS011;8501;49.926;8.404;2023-07-31T06:05:03;5.03;;;2.90;;
16766;SDS011;8501;49.926;8.404;2023-07-31T06:07:30;6.88;;;2.90;;
16766;SDS011;8501;49.926;8.404;2023-07-31T06:09:56;8.25;;;3.30;;
16766;SDS011;8501;49.926;8.404;2023-07-31T06:12:27;7.53;;;3.17;;
16766;SDS011;8501;49.926;8.404;2023-07-31T06:14:52;7.05;;;3.00;;
16766;SDS011;8501;49.926;8.404;2023-07-31T06:17:18;6.45;;;3.00;;
16766;SDS011;8501;49.926;8.404;2023-07-31T06:19:43;6.45;;;2.80;;
16766;SDS011;8501;49.926;8.404;2023-07-31T06:22:09;4.82;;;2.85;;
16766;SDS011;8501;49.926;8.404;2023-07-31T06:24:34;6.40;;;3.00;;
16766;SDS011;8501;49.926;8.404;2023-07-31T06:27:00;6.82;;;2.95;;
16766;SDS011;8501;49.926;8.404;2023-07-31T06:29:27;7.85;;;3.28;;
16766;SDS011;8501;49.926;8.404;2023-07-31T06:31:53;5.32;;;2.67;;
16766;SDS011;8501;49.926;8.404;2023-07-31T06:34:19;8.00;;;3.20;;
16766;SDS011;8501;49.926;8.404;2023-07-31T06:36:44;6.38;;;2.90;;
16766;SDS011;8501;49.926;8.404;2023-07-31T06:39:09;8.43;;;2.92;;
16766;SDS011;8501;49.926;8.404;2023-07-31T06:41:35;6.45;;;2.80;;
16766;SDS011;8501;49.926;8.404;2023-07-31T06:44:01;6.45;;;2.95;;
16766;SDS011;8501;49.926;8.404;2023-07-31T06:46:26;6.40;;;2.70;;
16766;SDS011;8501;49.926;8.404;2023-07-31T06:48:52;8.57;;;2.80;;
16766;SDS011;8501;49.926;8.404;2023-07-31T06:51:17;4.85;;;3.03;;
16766;SDS011;8501;49.926;8.404;2023-07-31T06:53:43;6.60;;;2.80;;
16766;SDS011;8501;49.926;8.404;2023-07-31T06:56:10;7.60;;;3.00;;
16766;SDS011;8501;49.926;8.404;2023-07-31T06:58:35;6.45;;;2.92;;
16766;SDS011;8501;49.926;8.404;2023-07-31T07:01:01;5.20;;;2.78;;
16766;SDS011;8501;49.926;8.404;2023-07-31T07:03:26;6.82;;;3.10;;
16766;SDS011;8501;49.926;8.404;2023-07-31T07:05:52;5.63;;;2.85;;
16766;SDS011;8501;49.926;8.404;2023-07-31T07:08:18;8.93;;;3.00;;
16766;SDS011;8501;49.926;8.404;2023-07-31T07:10:43;7.82;;;3.22;;
16766;SDS011;8501;49.926;8.404;2023-07-31T07:13:09;4.28;;;2.83;;
16766;SDS011;8501;49.926;8.404;2023-07-31T07:15:34;7.60;;;2.97;;
16766;SDS011;8501;49.926;8.404;2023-07-31T07:18:00;6.38;;;3.08;;
16766;SDS011;8501;49.926;8.404;2023-07-31T07:20:26;6.38;;;3.10;;
16766;SDS011;8501;49.926;8.404;2023-07-31T07:22:51;4.88;;;2.90;;
16766;SDS011;8501;49.926;8.404;2023-07-31T07:25:17;8.45;;;2.97;;
16766;SDS011;8501;49.926;8.404;2023-07-31T07:27:42;8.90;;;3.33;;
16766;SDS011;8501;49.926;8.404;2023-07-31T07:30:09;7.53;;;3.10;;
16766;SDS011;8501;49.926;8.404;2023-07-31T07:32:35;5.47;;;2.70;;
16766;SDS011;8501;49.926;8.404;2023-07-31T07:35:00;6.30;;;3.00;;
16766;SDS011;8501;49.926;8.404;2023-07-31T07:37:26;8.10;;;3.00;;
16766;SDS011;8501;49.926;8.404;2023-07-31T07:39:51;7.90;;;3.03;;
16766;SDS011;8501;49.926;8.404;2023-07-31T07:42:17;5.30;;;2.83;;
16766;SDS011;8501;49.926;8.404;2023-07-31T07:44:43;6.40;;;2.80;;
16766;SDS011;8501;49.926;8.404;2023-07-31T07:47:08;5.15;;;2.80;;
16766;SDS011;8501;49.926;8.404;2023-07-31T07:49:34;6.70;;;2.80;;
16766;SDS011;8501;49.926;8.404;2023-07-31T07:52:00;3.90;;;2.47;;
16766;SDS011;8501;49.926;8.404;2023-07-31T07:54:26;7.57;;;2.80;;
16766;SDS011;8501;49.926;8.404;2023-07-31T07:56:52;7.30;;;2.88;;
16766;SDS011;8501;49.926;8.404;2023-07-31T07:59:17;7.05;;;2.83;;
16766;SDS011;8501;49.926;8.404;2023-07-31T08:01:43;6.18;;;2.53;;
16766;SDS011;8501;49.926;8.404;2023-07-31T08:04:08;4.47;;;2.53;;
16766;SDS011;8501;49.926;8.404;2023-07-31T08:06:34;6.22;;;2.63;;
16766;SDS011;8501;49.926;8.404;2023-07-31T08:08:59;7.97;;;2.72;;
16766;SDS011;8501;49.926;8.404;2023-07-31T08:11:30;4.47;;;2.65;;
16766;SDS011;8501;49.926;8.404;2023-07-31T08:13:55;4.63;;;2.83;;
16766;SDS011;8501;49.926;8.404;2023-07-31T08:16:21;5.03;;;2.50;;
16766;SDS011;8501;49.926;8.404;2023-07-31T10:22:19;8.38;;;3.10;;
16766;SDS011;8501;49.926;8.404;2023-07-31T10:24:46;6.28;;;3.13;;
16766;SDS011;8501;49.926;8.404;2023-07-31T10:27:13;5.32;;;3.20;;
16766;SDS011;8501;49.926;8.404;2023-07-31T10:29:38;5.63;;;2.75;;
16766;SDS011;8501;49.926;8.404;2023-07-31T10:32:06;5.90;;;2.95;;
16766;SDS011;8501;49.926;8.404;2023-07-31T10:34:35;7.57;;;3.40;;
16766;SDS011;8501;49.926;8.404;2023-07-31T10:45:12;7.50;;;3.47;;
16766;SDS011;8501;49.926;8.404;2023-07-31T10:47:42;6.70;;;2.83;;
16766;SDS011;8501;49.926;8.404;2023-07-31T10:50:22;6.15;;;3.03;;
16766;SDS011;8501;49.926;8.404;2023-07-31T10:52:55;6.25;;;3.22;;
16766;SDS011;8501;49.926;8.404;2023-07-31T10:55:32;8.32;;;3.45;;
16766;SDS011;8501;49.926;8.404;2023-07-31T10:58:05;5.57;;;3.35;;
16766;SDS011;8501;49.926;8.404;2023-07-31T11:00:33;7.53;;;3.13;;
16766;SDS011;8501;49.926;8.404;2023-07-31T11:03:05;6.43;;;3.20;;
16766;SDS011;8501;49.926;8.404;2023-07-31T11:13:31;6.63;;;3.22;;
16766;SDS011;8501;49.926;8.404;2023-07-31T11:15:58;6.72;;;3.03;;
16766;SDS011;8501;49.926;8.404;2023-07-31T11:18:28;7.82;;;3.03;;
16766;SDS011;8501;49.926;8.404;2023-07-31T11:20:53;6.97;;;3.50;;
16766;SDS011;8501;49.926;8.404;2023-07-31T11:23:19;5.38;;;2.92;;
16766;SDS011;8501;49.926;8.404;2023-07-31T11:25:46;5.82;;;2.88;;
16766;SDS011;8501;49.926;8.404;2023-07-31T11:28:12;6.00;;;2.85;;
16766;SDS011;8501;49.926;8.404;2023-07-31T11:30:39;5.55;;;3.60;;
16766;SDS011;8501;49.926;8.404;2023-07-31T11:33:06;6.07;;;3.00;;
16766;SDS011;8501;49.926;8.404;2023-07-31T11:35:33;6.45;;;3.22;;
16766;SDS011;8501;49.926;8.404;2023-07-31T11:38:00;6.68;;;3.22;;
16766;SDS011;8501;49.926;8.404;2023-07-31T11:40:26;6.25;;;3.45;;
16766;SDS011;8501;49.926;8.404;2023-07-31T11:42:58;6.57;;;3.35;;
16766;SDS011;8501;49.926;8.404;2023-07-31T11:45:29;6.55;;;3.40;;
16766;SDS011;8501;49.926;8.404;2023-07-31T11:47:55;6.50;;;3.28;;
16766;SDS011;8501;49.926;8.404;2023-07-31T11:50:22;4.60;;;3.25;;
16766;SDS011;8501;49.926;8.404;2023-07-31T11:52:50;6.13;;;3.50;;
16766;SDS011;8501;49.926;8.404;2023-07-31T11:55:22;5.72;;;3.60;;
16766;SDS011;8501;49.926;8.404;2023-07-31T11:57:48;7.35;;;3.47;;
16766;SDS011;8501;49.926;8.404;2023-07-31T12:00:15;5.95;;;3.15;;
16766;SDS011;8501;49.926;8.404;2023-07-31T12:02:42;7.93;;;3.45;;
16766;SDS011;8501;49.926;8.404;2023-07-31T12:05:11;5.20;;;3.10;;
16766;SDS011;8501;49.926;8.404;2023-07-31T12:07:48;5.88;;;3.45;;
16766;SDS011;8501;49.926;8.404;2023-07-31T12:10:30;5.43;;;3.25;;
16766;SDS011;8501;49.926;8.404;2023-07-31T12:12:58;5.55;;;3.13;;
16766;SDS011;8501;49.926;8.404;2023-07-31T12:15:38;6.47;;;3.00;;
16766;SDS011;8501;49.926;8.404;2023-07-31T12:18:09;6.32;;;3.10;;
16766;SDS011;8501;49.926;8.404;2023-07-31T12:20:34;5.75;;;3.08;;
16766;SDS011;8501;49.926;8.404;2023-07-31T12:23:00;6.32;;;3.38;;
16766;SDS011;8501;49.926;8.404;2023-07-31T12:25:32;7.32;;;3.38;;
16766;SDS011;8501;49.926;8.404;2023-07-31T12:28:03;8.13;;;3.40;;
16766;SDS011;8501;49.926;8.404;2023-07-31T12:30:32;5.95;;;3.08;;
16766;SDS011;8501;49.926;8.404;2023-07-31T12:33:02;5.95;;;3.47;;
16766;SDS011;8501;49.926;8.404;2023-07-31T12:35:41;7.05;;;3.80;;
16766;SDS011;8501;49.926;8.404;2023-07-31T12:38:08;8.00;;;3.35;;
16766;SDS011;8501;49.926;8.404;2023-07-31T12:40:35;5.00;;;2.80;;
16766;SDS011;8501;49.926;8.404;2023-07-31T12:43:02;4.85;;;3.20;;
16766;SDS011;8501;49.926;8.404;2023-07-31T12:45:28;6.65;;;3.50;;
16766;SDS011;8501;49.926;8.404;2023-07-31T12:47:55;4.70;;;2.92;;
16766;SDS011;8501;49.926;8.404;2023-07-31T12:50:21;4.72;;;2.95;;
16766;SDS011;8501;49.926;8.404;2023-07-31T12:52:46;6.60;;;3.05;;
16766;SDS011;8501;49.926;8.404;2023-07-31T12:55:12;7.30;;;3.40;;
16766;SDS011;8501;49.926;8.404;2023-07-31T12:57:39;4.85;;;3.22;;
16766;SDS011;8501;49.926;8.404;2023-07-31T13:00:06;5.60;;;3.25;;
16766;SDS011;8501;49.926;8.404;2023-07-31T13:02:32;4.45;;;2.90;;
16766;SDS011;8501;49.926;8.404;2023-07-31T13:04:57;4.72;;;3.13;;
16766;SDS011;8501;49.926;8.404;2023-07-31T13:07:23;6.68;;;3.25;;
16766;SDS011;8501;49.926;8.404;2023-07-31T13:09:48;6.28;;;3.10;;
16766;SDS011;8501;49.926;8.404;2023-07-31T13:12:14;5.53;;;2.85;;
16766;SDS011;8501;49.926;8.404;2023-07-31T13:14:39;6.53;;;3.30;;
16766;SDS011;8501;49.926;8.404;2023-07-31T13:17:05;5.30;;;3.00;;
16766;SDS011;8501;49.926;8.404;2023-07-31T13:19:31;4.57;;;2.83;;
16766;SDS011;8501;49.926;8.404;2023-07-31T13:21:56;5.95;;;2.90;;
16766;SDS011;8501;49.926;8.404;2023-07-31T13:24:22;5.68;;;2.70;;
16766;SDS011;8501;49.926;8.404;2023-07-31T13:26:47;5.25;;;3.05;;
16766;SDS011;8501;49.926;8.404;2023-07-31T13:29:13;3.88;;;2.83;;
16766;SDS011;8501;49.926;8.404;2023-07-31T13:31:39;4.38;;;2.80;;
16766;SDS011;8501;49.926;8.404;2023-07-31T13:34:04;5.47;;;2.78;;
16766;SDS011;8501;49.926;8.404;2023-07-31T13:36:30;5.15;;;2.75;;
16766;SDS011;8501;49.926;8.404;2023-07-31T13:38:55;4.88;;;3.00;;
16766;SDS011;8501;49.926;8.404;2023-07-31T13:41:20;5.50;;;3.20;;
16766;SDS011;8501;49.926;8.404;2023-07-31T13:43:46;5.22;;;2.97;;
16766;SDS011;8501;49.926;8.404;2023-07-31T13:46:11;5.38;;;2.65;;
16766;SDS011;8501;49.926;8.404;2023-07-31T13:48:37;5.75;;;3.05;;
16766;SDS011;8501;49.926;8.404;2023-07-31T13:51:03;6.55;;;2.90;;
16766;SDS011;8501;49.926;8.404;2023-07-31T13:53:28;5.63;;;2.88;;
16766;SDS011;8501;49.926;8.404;2023-07-31T13:55:54;5.47;;;3.35;;
16766;SDS011;8501;49.926;8.404;2023-07-31T13:58:20;7.93;;;3.33;;
16766;SDS011;8501;49.926;8.404;2023-07-31T14:00:46;8.00;;;3.22;;
16766;SDS011;8501;49.926;8.404;2023-07-31T14:03:11;7.22;;;3.10;;
16766;SDS011;8501;49.926;8.404;2023-07-31T14:05:37;4.40;;;2.97;;
16766;SDS011;8501;49.926;8.404;2023-07-31T14:08:02;5.38;;;2.83;;
16766;SDS011;8501;49.926;8.404;2023-07-31T14:10:28;5.47;;;3.13;;
16766;SDS011;8501;49.926;8.404;2023-07-31T14:12:54;6.22;;;2.92;;
16766;SDS011;8501;49.926;8.404;2023-07-31T14:15:19;6.32;;;3.30;;
16766;SDS011;8501;49.926;8.404;2023-07-31T14:17:45;7.03;;;3.33;;
16766;SDS011;8501;49.926;8.404;2023-07-31T14:20:10;7.15;;;3.35;;
16766;SDS011;8501;49.926;8.404;2023-07-31T14:22:36;5.65;;;3.22;;
16766;SDS011;8501;49.926;8.404;2023-07-31T14:25:03;5.88;;;3.30;;
16766;SDS011;8501;49.926;8.404;2023-07-31T14:27:28;5.50;;;3.35;;
16766;SDS011;8501;49.926;8.404;2023-07-31T14:29:54;4.18;;;2.75;;
16766;SDS011;8501;49.926;8.404;2023-07-31T14:32:20;8.32;;;3.25;;
16766;SDS011;8501;49.926;8.404;2023-07-31T14:34:46;5.75;;;3.00;;
16766;SDS011;8501;49.926;8.404;2023-07-31T14:37:12;5.55;;;3.20;;
16766;SDS011;8501;49.926;8.404;2023-07-31T14:39:37;4.45;;;2.70;;
16766;SDS011;8501;49.926;8.404;2023-07-31T14:42:03;6.43;;;2.88;;
16766;SDS011;8501;49.926;8.404;2023-07-31T14:44:28;4.32;;;2.78;;
16766;SDS011;8501;49.926;8.404;2023-07-31T14:46:54;7.18;;;3.10;;
16766;SDS011;8501;49.926;8.404;2023-07-31T14:49:19;4.55;;;3.03;;
16766;SDS011;8501;49.926;8.404;2023-07-31T14:51:45;4.00;;;2.90;;
16766;SDS011;8501;49.926;8.404;2023-07-31T14:54:10;5.65;;;2.60;;
16766;SDS011;8501;49.926;8.404;2023-07-31T14:56:36;3.42;;;2.40;;
16766;SDS011;8501;49.926;8.404;2023-07-31T14:59:01;5.38;;;2.50;;
16766;SDS011;8501;49.926;8.404;2023-07-31T15:01:27;6.18;;;2.47;;
16766;SDS011;8501;49.926;8.404;2023-07-31T15:03:53;3.83;;;2.33;;
16766;SDS011;8501;49.926;8.404;2023-07-31T15:06:19;2.80;;;2.20;;
16766;SDS011;8501;49.926;8.404;2023-07-31T15:08:44;2.42;;;1.83;;
16766;SDS011;8501;49.926;8.404;2023-07-31T15:11:10;4.38;;;2.20;;
16766;SDS011;8501;49.926;8.404;2023-07-31T15:13:35;2.10;;;1.60;;
16766;SDS011;8501;49.926;8.404;2023-07-31T15:16:01;3.47;;;1.65;;
16766;SDS011;8501;49.926;8.404;2023-07-31T15:18:26;2.47;;;1.58;;
16766;SDS011;8501;49.926;8.404;2023-07-31T15:20:53;2.47;;;1.67;;
16766;SDS011;8501;49.926;8.404;2023-07-31T15:23:19;3.00;;;1.55;;
16766;SDS011;8501;49.926;8.404;2023-07-31T15:25:44;3.85;;;1.88;;
16766;SDS011;8501;49.926;8.404;2023-07-31T15:28:10;2.90;;;1.77;;
16766;SDS011;8501;49.926;8.404;2023-07-31T15:30:36;4.88;;;1.90;;
16766;SDS011;8501;49.926;8.404;2023-07-31T15:33:02;3.75;;;1.90;;
16766;SDS011;8501;49.926;8.404;2023-07-31T15:35:28;3.35;;;1.80;;
16766;SDS011;8501;49.926;8.404;2023-07-31T15:37:54;2.88;;;2.00;;
16766;SDS011;8501;49.926;8.404;2023-07-31T15:40:20;4.88;;;1.90;;
16766;SDS011;8501;49.926;8.404;2023-07-31T15:42:45;3.00;;;1.80;;
16766;SDS011;8501;49.926;8.404;2023-07-31T15:45:11;3.75;;;1.90;;
16766;SDS011;8501;49.926;8.404;2023-07-31T15:47:36;3.20;;;1.95;;
16766;SDS011;8501;49.926;8.404;2023-07-31T15:50:02;3.25;;;2.10;;
16766;SDS011;8501;49.926;8.404;2023-07-31T15:52:28;3.33;;;2.03;;
16766;SDS011;8501;49.926;8.404;2023-07-31T15:54:54;3.33;;;2.20;;
16766;SDS011;8501;49.926;8.404;2023-07-31T15:57:20;3.38;;;2.10;;
16766;SDS011;8501;49.926;8.404;2023-07-31T15:59:45;5.15;;;2.28;;
16766;SDS011;8501;49.926;8.404;2023-07-31T16:02:11;4.75;;;2.20;;
16766;SDS011;8501;49.926;8.404;2023-07-31T16:04:37;5.28;;;2.00;;
16766;SDS011;8501;49.926;8.404;2023-07-31T16:07:02;3.75;;;1.95;;
16766;SDS011;8501;49.926;8.404;2023-07-31T16:09:28;4.20;;;2.10;;
16766;SDS011;8501;49.926;8.404;2023-07-31T16:11:53;4.53;;;2.00;;
16766;SDS011;8501;49.926;8.404;2023-07-31T16:14:19;4.78;;;2.10;;
16766;SDS011;8501;49.926;8.404;2023-07-31T16:16:45;2.97;;;2.17;;
16766;SDS011;8501;49.926;8.404;2023-07-31T16:19:11;6.20;;;2.05;;
16766;SDS011;8501;49.926;8.404;2023-07-31T16:21:37;3.72;;;2.33;;
16766;SDS011;8501;49.926;8.404;2023-07-31T16:24:02;5.53;;;2.50;;
16766;SDS011;8501;49.926;8.404;2023-07-31T16:26:28;4.53;;;2.60;;
16766;SDS011;8501;49.926;8.404;2023-07-31T16:28:54;4.75;;;2.50;;
16766;SDS011;8501;49.926;8.404;2023-07-31T16:31:19;5.82;;;2.55;;
16766;SDS011;8501;49.926;8.404;2023-07-31T16:33:45;5.35;;;2.35;;
16766;SDS011;8501;49.926;8.404;2023-07-31T16:36:10;6.35;;;3.00;;
16766;SDS011;8501;49.926;8.404;2023-07-31T16:38:36;4.80;;;2.95;;
16766;SDS011;8501;49.926;8.404;2023-07-31T16:41:01;5.43;;;2.80;;
16766;SDS011;8501;49.926;8.404;2023-07-31T16:43:27;6.00;;;2.70;;
16766;SDS011;8501;49.926;8.404;2023-07-31T16:45:54;5.65;;;2.60;;
16766;SDS011;8501;49.926;8.404;2023-07-31T16:48:21;5.45;;;2.40;;
16766;SDS011;8501;49.926;8.404;2023-07-31T16:50:46;6.43;;;3.03;;
16766;SDS011;8501;49.926;8.404;2023-07-31T16:53:12;3.85;;;2.42;;
16766;SDS011;8501;49.926;8.404;2023-07-31T16:55:37;4.60;;;2.47;;
16766;SDS011;8501;49.926;8.404;2023-07-31T16:58:03;5.50;;;2.92;;
16766;SDS011;8501;49.926;8.404;2023-07-31T17:00:28;5.63;;;2.83;;
16766;SDS011;8501;49.926;8.404;2023-07-31T17:02:54;4.60;;;2.70;;
16766;SDS011;8501;49.926;8.404;2023-07-31T17:05:20;4.30;;;2.50;;
16766;SDS011;8501;49.926;8.404;2023-07-31T17:07:46;6.00;;;3.03;;
16766;SDS011;8501;49.926;8.404;2023-07-31T17:10:11;5.30;;;3.00;;
16766;SDS011;8501;49.926;8.404;2023-07-31T17:12:37;5.65;;;2.95;;
16766;SDS011;8501;49.926;8.404;2023-07-31T17:15:02;5.43;;;2.88;;
16766;SDS011;8501;49.926;8.404;2023-07-31T17:17:29;6.20;;;2.90;;
16766;SDS011;8501;49.926;8.404;2023-07-31T17:19:54;3.60;;;2.70;;